sensor_id;sensor_type;location;lat;lon;timestamp;P1;durP1;ratioP1;P2;durP2;ratioP2
24833;SDS011;12914;43.702;22.862;2022-07-06T00:02:07;29.45;;;19.55;;
24833;SDS011;12914;43.702;22.862;2022-07-06T00:04:33;25.25;;;19.92;;
24833;SDS011;12914;43.702;22.862;2022-07-06T00:06:59;24.33;;;19.42;;
24833;SDS011;12914;43.702;22.862;2022-07-06T00:09:24;24.08;;;18.88;;
24833;SDS011;12914;43.702;22.862;2022-07-06T00:11:50;24.60;;;19.17;;
24833;SDS011;12914;43.702;22.862;2022-07-06T00:14:15;26.02;;;20.27;;
24833;SDS011;12914;43.702;22.862;2022-07-06T00:16:41;24.55;;;18.85;;
24833;SDS011;12914;43.702;22.862;2022-07-06T00:19:07;24.58;;;18.50;;
24833;SDS011;12914;43.702;22.862;2022-07-06T00:21:32;22.55;;;17.13;;
24833;SDS011;12914;43.702;22.862;2022-07-06T00:23:58;19.77;;;15.85;;
24833;SDS011;12914;43.702;22.862;2022-07-06T00:26:23;19.92;;;15.25;;
24833;SDS011;12914;43.702;22.862;2022-07-06T00:28:49;21.30;;;14.68;;
24833;SDS011;12914;43.702;22.862;2022-07-06T00:31:14;16.38;;;13.63;;
24833;SDS011;12914;43.702;22.862;2022-07-06T00:33:40;21.73;;;12.98;;
24833;SDS011;12914;43.702;22.862;2022-07-06T00:36:06;18.75;;;13.30;;
24833;SDS011;12914;43.702;22.862;2022-07-06T00:38:31;14.93;;;12.25;;
24833;SDS011;12914;43.702;22.862;2022-07-06T00:40:57;14.52;;;12.15;;
24833;SDS011;12914;43.702;22.862;2022-07-06T00:43:22;17.52;;;11.82;;
24833;SDS011;12914;43.702;22.862;2022-07-06T00:45:48;13.45;;;11.15;;
24833;SDS011;12914;43.702;22.862;2022-07-06T00:48:14;14.27;;;11.38;;
24833;SDS011;12914;43.702;22.862;2022-07-06T00:50:39;14.45;;;10.85;;
24833;SDS011;12914;43.702;22.862;2022-07-06T00:53:05;13.27;;;10.52;;
24833;SDS011;12914;43.702;22.862;2022-07-06T00:55:33;13.25;;;8.93;;
24833;SDS011;12914;43.702;22.862;2022-07-06T00:58:01;11.55;;;9.07;;
24833;SDS011;12914;43.702;22.862;2022-07-06T01:00:27;12.15;;;9.25;;
24833;SDS011;12914;43.702;22.862;2022-07-06T01:02:53;14.68;;;10.05;;
24833;SDS011;12914;43.702;22.862;2022-07-06T01:05:20;11.43;;;9.15;;
24833;SDS011;12914;43.702;22.862;2022-07-06T01:07:47;11.73;;;9.10;;
24833;SDS011;12914;43.702;22.862;2022-07-06T01:10:15;11.82;;;8.10;;
24833;SDS011;12914;43.702;22.862;2022-07-06T01:12:44;10.93;;;9.15;;
24833;SDS011;12914;43.702;22.862;2022-07-06T01:15:12;12.77;;;8.80;;
24833;SDS011;12914;43.702;22.862;2022-07-06T01:17:42;12.25;;;8.85;;
24833;SDS011;12914;43.702;22.862;2022-07-06T01:20:12;11.23;;;9.05;;
24833;SDS011;12914;43.702;22.862;2022-07-06T01:22:41;13.93;;;9.30;;
24833;SDS011;12914;43.702;22.862;2022-07-06T01:25:07;11.68;;;8.93;;
24833;SDS011;12914;43.702;22.862;2022-07-06T01:27:37;12.07;;;9.65;;
24833;SDS011;12914;43.702;22.862;2022-07-06T01:30:05;12.25;;;9.40;;
24833;SDS011;12914;43.702;22.862;2022-07-06T01:32:33;14.50;;;10.07;;
24833;SDS011;12914;43.702;22.862;2022-07-06T01:34:59;14.38;;;9.38;;
24833;SDS011;12914;43.702;22.862;2022-07-06T01:37:25;12.27;;;10.57;;
24833;SDS011;12914;43.702;22.862;2022-07-06T01:39:51;14.38;;;9.68;;
24833;SDS011;12914;43.702;22.862;2022-07-06T01:42:16;13.75;;;11.73;;
24833;SDS011;12914;43.702;22.862;2022-07-06T01:44:43;12.93;;;10.23;;
24833;SDS011;12914;43.702;22.862;2022-07-06T01:47:09;13.75;;;11.35;;
24833;SDS011;12914;43.702;22.862;2022-07-06T01:49:35;12.60;;;9.80;;
24833;SDS011;12914;43.702;22.862;2022-07-06T01:52:01;13.65;;;10.77;;
24833;SDS011;12914;43.702;22.862;2022-07-06T01:54:27;14.52;;;10.38;;
24833;SDS011;12914;43.702;22.862;2022-07-06T01:56:53;14.30;;;10.63;;
24833;SDS011;12914;43.702;22.862;2022-07-06T01:59:18;13.50;;;10.85;;
24833;SDS011;12914;43.702;22.862;2022-07-06T02:01:44;15.60;;;11.90;;
24833;SDS011;12914;43.702;22.862;2022-07-06T02:04:09;17.92;;;12.65;;
24833;SDS011;12914;43.702;22.862;2022-07-06T02:06:35;15.00;;;11.90;;
24833;SDS011;12914;43.702;22.862;2022-07-06T02:09:01;17.45;;;12.57;;
24833;SDS011;12914;43.702;22.862;2022-07-06T02:11:26;15.68;;;12.63;;
24833;SDS011;12914;43.702;22.862;2022-07-06T02:13:53;15.82;;;12.35;;
24833;SDS011;12914;43.702;22.862;2022-07-06T02:16:18;16.63;;;13.45;;
24833;SDS011;12914;43.702;22.862;2022-07-06T02:18:44;16.00;;;13.63;;
24833;SDS011;12914;43.702;22.862;2022-07-06T02:21:09;18.45;;;12.55;;
24833;SDS011;12914;43.702;22.862;2022-07-06T02:23:35;19.48;;;13.68;;
24833;SDS011;12914;43.702;22.862;2022-07-06T02:26:01;15.25;;;12.70;;
24833;SDS011;12914;43.702;22.862;2022-07-06T02:28:26;16.17;;;13.07;;
24833;SDS011;12914;43.702;22.862;2022-07-06T02:30:52;17.92;;;12.43;;
24833;SDS011;12914;43.702;22.862;2022-07-06T02:33:18;16.92;;;13.05;;
24833;SDS011;12914;43.702;22.862;2022-07-06T02:35:44;15.88;;;12.20;;
24833;SDS011;12914;43.702;22.862;2022-07-06T02:38:09;13.93;;;10.73;;
24833;SDS011;12914;43.702;22.862;2022-07-06T02:40:35;13.68;;;10.70;;
24833;SDS011;12914;43.702;22.862;2022-07-06T02:43:01;15.82;;;11.45;;
24833;SDS011;12914;43.702;22.862;2022-07-06T02:45:27;15.73;;;10.55;;
24833;SDS011;12914;43.702;22.862;2022-07-06T02:47:52;15.38;;;11.75;;
24833;SDS011;12914;43.702;22.862;2022-07-06T02:50:20;12.93;;;11.60;;
24833;SDS011;12914;43.702;22.862;2022-07-06T02:52:46;16.30;;;11.40;;
24833;SDS011;12914;43.702;22.862;2022-07-06T02:55:11;14.73;;;11.95;;
24833;SDS011;12914;43.702;22.862;2022-07-06T02:57:37;14.45;;;10.35;;
24833;SDS011;12914;43.702;22.862;2022-07-06T03:00:03;12.50;;;10.18;;
24833;SDS011;12914;43.702;22.862;2022-07-06T03:02:29;13.93;;;11.73;;
24833;SDS011;12914;43.702;22.862;2022-07-06T03:04:55;14.88;;;11.55;;
24833;SDS011;12914;43.702;22.862;2022-07-06T03:07:21;15.48;;;10.98;;
24833;SDS011;12914;43.702;22.862;2022-07-06T03:09:47;13.98;;;10.85;;
24833;SDS011;12914;43.702;22.862;2022-07-06T03:12:13;19.48;;;12.25;;
24833;SDS011;12914;43.702;22.862;2022-07-06T03:14:38;14.63;;;12.10;;
24833;SDS011;12914;43.702;22.862;2022-07-06T03:17:04;15.25;;;11.63;;
24833;SDS011;12914;43.702;22.862;2022-07-06T03:19:29;15.50;;;12.63;;
24833;SDS011;12914;43.702;22.862;2022-07-06T03:21:55;17.33;;;12.70;;
24833;SDS011;12914;43.702;22.862;2022-07-06T03:24:21;13.32;;;11.25;;
24833;SDS011;12914;43.702;22.862;2022-07-06T03:26:46;16.75;;;11.52;;
24833;SDS011;12914;43.702;22.862;2022-07-06T03:29:12;16.00;;;10.63;;
24833;SDS011;12914;43.702;22.862;2022-07-06T03:31:37;12.60;;;10.93;;
24833;SDS011;12914;43.702;22.862;2022-07-06T03:34:03;14.02;;;10.40;;
24833;SDS011;12914;43.702;22.862;2022-07-06T03:36:29;14.32;;;11.02;;
24833;SDS011;12914;43.702;22.862;2022-07-06T03:38:54;13.45;;;11.15;;
24833;SDS011;12914;43.702;22.862;2022-07-06T03:41:20;13.77;;;10.90;;
24833;SDS011;12914;43.702;22.862;2022-07-06T03:43:45;14.27;;;9.20;;
24833;SDS011;12914;43.702;22.862;2022-07-06T03:46:11;12.50;;;9.23;;
24833;SDS011;12914;43.702;22.862;2022-07-06T03:48:36;12.00;;;9.52;;
24833;SDS011;12914;43.702;22.862;2022-07-06T03:51:02;11.30;;;9.20;;
24833;SDS011;12914;43.702;22.862;2022-07-06T03:53:27;9.73;;;8.32;;
24833;SDS011;12914;43.702;22.862;2022-07-06T03:55:53;13.27;;;9.48;;
24833;SDS011;12914;43.702;22.862;2022-07-06T03:58:37;13.10;;;9.30;;
24833;SDS011;12914;43.702;22.862;2022-07-06T04:01:02;12.02;;;8.85;;
24833;SDS011;12914;43.702;22.862;2022-07-06T04:03:28;11.63;;;8.65;;
24833;SDS011;12914;43.702;22.862;2022-07-06T04:05:53;11.35;;;7.72;;
24833;SDS011;12914;43.702;22.862;2022-07-06T04:08:19;12.68;;;8.02;;
24833;SDS011;12914;43.702;22.862;2022-07-06T04:10:45;10.15;;;9.10;;
24833;SDS011;12914;43.702;22.862;2022-07-06T04:13:11;11.60;;;8.63;;
24833;SDS011;12914;43.702;22.862;2022-07-06T04:15:37;12.98;;;9.32;;
24833;SDS011;12914;43.702;22.862;2022-07-06T04:18:02;10.82;;;7.97;;
24833;SDS011;12914;43.702;22.862;2022-07-06T04:20:28;10.77;;;8.43;;
24833;SDS011;12914;43.702;22.862;2022-07-06T04:22:54;12.70;;;8.55;;
24833;SDS011;12914;43.702;22.862;2022-07-06T04:25:20;11.25;;;7.75;;
24833;SDS011;12914;43.702;22.862;2022-07-06T04:27:45;9.00;;;7.47;;
24833;SDS011;12914;43.702;22.862;2022-07-06T04:30:11;8.85;;;7.25;;
24833;SDS011;12914;43.702;22.862;2022-07-06T04:32:37;9.60;;;7.18;;
24833;SDS011;12914;43.702;22.862;2022-07-06T04:35:03;9.88;;;8.88;;
24833;SDS011;12914;43.702;22.862;2022-07-06T04:37:30;12.68;;;8.18;;
24833;SDS011;12914;43.702;22.862;2022-07-06T04:39:55;9.05;;;7.50;;
24833;SDS011;12914;43.702;22.862;2022-07-06T04:42:21;9.32;;;7.95;;
24833;SDS011;12914;43.702;22.862;2022-07-06T04:44:46;12.27;;;8.35;;
24833;SDS011;12914;43.702;22.862;2022-07-06T04:47:12;8.32;;;7.40;;
24833;SDS011;12914;43.702;22.862;2022-07-06T04:49:38;9.73;;;8.23;;
24833;SDS011;12914;43.702;22.862;2022-07-06T04:52:04;9.18;;;8.27;;
24833;SDS011;12914;43.702;22.862;2022-07-06T04:54:30;10.38;;;8.70;;
24833;SDS011;12914;43.702;22.862;2022-07-06T04:56:56;11.80;;;8.40;;
24833;SDS011;12914;43.702;22.862;2022-07-06T04:59:22;11.50;;;8.52;;
24833;SDS011;12914;43.702;22.862;2022-07-06T05:01:47;9.13;;;8.20;;
24833;SDS011;12914;43.702;22.862;2022-07-06T05:04:13;9.95;;;8.70;;
24833;SDS011;12914;43.702;22.862;2022-07-06T05:06:38;9.82;;;8.20;;
24833;SDS011;12914;43.702;22.862;2022-07-06T05:09:05;12.60;;;8.18;;
24833;SDS011;12914;43.702;22.862;2022-07-06T05:11:31;10.48;;;8.35;;
24833;SDS011;12914;43.702;22.862;2022-07-06T05:13:56;12.18;;;8.85;;
24833;SDS011;12914;43.702;22.862;2022-07-06T05:16:22;11.25;;;9.40;;
24833;SDS011;12914;43.702;22.862;2022-07-06T05:18:48;11.35;;;9.18;;
24833;SDS011;12914;43.702;22.862;2022-07-06T05:21:13;14.50;;;10.40;;
24833;SDS011;12914;43.702;22.862;2022-07-06T05:23:39;10.95;;;9.45;;
24833;SDS011;12914;43.702;22.862;2022-07-06T05:26:05;11.55;;;10.10;;
24833;SDS011;12914;43.702;22.862;2022-07-06T05:28:31;14.20;;;11.00;;
24833;SDS011;12914;43.702;22.862;2022-07-06T05:30:56;12.20;;;9.85;;
24833;SDS011;12914;43.702;22.862;2022-07-06T05:33:22;13.02;;;9.90;;
24833;SDS011;12914;43.702;22.862;2022-07-06T05:35:48;10.77;;;9.70;;
24833;SDS011;12914;43.702;22.862;2022-07-06T05:38:13;13.20;;;9.60;;
24833;SDS011;12914;43.702;22.862;2022-07-06T05:40:39;11.98;;;10.20;;
24833;SDS011;12914;43.702;22.862;2022-07-06T05:43:04;10.50;;;9.43;;
24833;SDS011;12914;43.702;22.862;2022-07-06T05:45:30;14.02;;;9.80;;
24833;SDS011;12914;43.702;22.862;2022-07-06T05:47:56;11.20;;;8.80;;
24833;SDS011;12914;43.702;22.862;2022-07-06T05:50:39;12.68;;;9.07;;
24833;SDS011;12914;43.702;22.862;2022-07-06T05:53:05;12.15;;;9.80;;
24833;SDS011;12914;43.702;22.862;2022-07-06T05:55:32;11.10;;;9.63;;
24833;SDS011;12914;43.702;22.862;2022-07-06T05:57:57;12.27;;;9.30;;
24833;SDS011;12914;43.702;22.862;2022-07-06T06:00:23;13.07;;;9.43;;
24833;SDS011;12914;43.702;22.862;2022-07-06T06:02:50;11.63;;;9.50;;
24833;SDS011;12914;43.702;22.862;2022-07-06T06:05:16;15.15;;;10.05;;
24833;SDS011;12914;43.702;22.862;2022-07-06T06:07:43;10.35;;;8.77;;
24833;SDS011;12914;43.702;22.862;2022-07-06T06:10:12;11.98;;;9.80;;
24833;SDS011;12914;43.702;22.862;2022-07-06T06:12:39;12.77;;;10.20;;
24833;SDS011;12914;43.702;22.862;2022-07-06T06:15:05;11.00;;;9.57;;
24833;SDS011;12914;43.702;22.862;2022-07-06T06:17:32;11.15;;;9.95;;
24833;SDS011;12914;43.702;22.862;2022-07-06T06:19:58;11.95;;;10.57;;
24833;SDS011;12914;43.702;22.862;2022-07-06T06:22:24;12.18;;;10.00;;
24833;SDS011;12914;43.702;22.862;2022-07-06T06:24:50;12.50;;;9.85;;
24833;SDS011;12914;43.702;22.862;2022-07-06T06:27:16;11.02;;;9.90;;
24833;SDS011;12914;43.702;22.862;2022-07-06T06:29:42;13.25;;;10.30;;
24833;SDS011;12914;43.702;22.862;2022-07-06T06:32:10;12.25;;;9.45;;
24833;SDS011;12914;43.702;22.862;2022-07-06T06:34:36;13.00;;;10.82;;
24833;SDS011;12914;43.702;22.862;2022-07-06T06:37:01;13.13;;;10.90;;
24833;SDS011;12914;43.702;22.862;2022-07-06T06:39:27;13.48;;;10.88;;
24833;SDS011;12914;43.702;22.862;2022-07-06T06:41:53;14.65;;;11.30;;
24833;SDS011;12914;43.702;22.862;2022-07-06T06:44:18;11.70;;;10.50;;
24833;SDS011;12914;43.702;22.862;2022-07-06T06:46:44;16.48;;;11.15;;
24833;SDS011;12914;43.702;22.862;2022-07-06T06:49:10;12.23;;;10.70;;
24833;SDS011;12914;43.702;22.862;2022-07-06T06:51:36;12.93;;;11.10;;
24833;SDS011;12914;43.702;22.862;2022-07-06T06:54:03;14.43;;;11.80;;
24833;SDS011;12914;43.702;22.862;2022-07-06T06:56:29;13.48;;;11.80;;
24833;SDS011;12914;43.702;22.862;2022-07-06T06:58:55;13.93;;;11.40;;
24833;SDS011;12914;43.702;22.862;2022-07-06T07:01:20;13.18;;;11.05;;
24833;SDS011;12914;43.702;22.862;2022-07-06T07:03:46;14.13;;;11.32;;
24833;SDS011;12914;43.702;22.862;2022-07-06T07:06:12;13.70;;;11.65;;
24833;SDS011;12914;43.702;22.862;2022-07-06T07:08:37;17.58;;;11.38;;
24833;SDS011;12914;43.702;22.862;2022-07-06T07:11:03;13.07;;;11.75;;
24833;SDS011;12914;43.702;22.862;2022-07-06T07:13:28;12.75;;;11.38;;
24833;SDS011;12914;43.702;22.862;2022-07-06T07:15:54;13.90;;;12.35;;
24833;SDS011;12914;43.702;22.862;2022-07-06T07:18:20;13.48;;;12.07;;
24833;SDS011;12914;43.702;22.862;2022-07-06T07:20:45;13.85;;;12.07;;
24833;SDS011;12914;43.702;22.862;2022-07-06T07:23:11;11.93;;;10.73;;
24833;SDS011;12914;43.702;22.862;2022-07-06T07:25:36;12.10;;;10.80;;
24833;SDS011;12914;43.702;22.862;2022-07-06T07:28:04;12.15;;;10.55;;
24833;SDS011;12914;43.702;22.862;2022-07-06T07:30:29;12.38;;;10.95;;
24833;SDS011;12914;43.702;22.862;2022-07-06T07:32:55;14.57;;;11.82;;
24833;SDS011;12914;43.702;22.862;2022-07-06T07:35:21;12.52;;;11.23;;
24833;SDS011;12914;43.702;22.862;2022-07-06T07:37:47;12.88;;;11.43;;
24833;SDS011;12914;43.702;22.862;2022-07-06T07:40:12;14.43;;;12.98;;
24833;SDS011;12914;43.702;22.862;2022-07-06T07:42:38;14.85;;;13.25;;
24833;SDS011;12914;43.702;22.862;2022-07-06T07:45:06;13.63;;;12.30;;
24833;SDS011;12914;43.702;22.862;2022-07-06T07:47:33;15.05;;;12.75;;
24833;SDS011;12914;43.702;22.862;2022-07-06T07:49:59;15.18;;;12.80;;
24833;SDS011;12914;43.702;22.862;2022-07-06T07:52:24;15.10;;;13.50;;
24833;SDS011;12914;43.702;22.862;2022-07-06T07:54:50;16.30;;;14.32;;
24833;SDS011;12914;43.702;22.862;2022-07-06T07:57:16;15.57;;;13.35;;
24833;SDS011;12914;43.702;22.862;2022-07-06T07:59:41;18.10;;;14.35;;
24833;SDS011;12914;43.702;22.862;2022-07-06T08:02:07;17.45;;;14.43;;
24833;SDS011;12914;43.702;22.862;2022-07-06T08:04:33;17.50;;;15.70;;
24833;SDS011;12914;43.702;22.862;2022-07-06T08:06:59;16.27;;;14.63;;
24833;SDS011;12914;43.702;22.862;2022-07-06T08:09:24;17.27;;;15.35;;
24833;SDS011;12914;43.702;22.862;2022-07-06T08:11:51;16.48;;;14.48;;
24833;SDS011;12914;43.702;22.862;2022-07-06T08:14:16;17.80;;;15.55;;
24833;SDS011;12914;43.702;22.862;2022-07-06T08:16:43;18.80;;;16.75;;
24833;SDS011;12914;43.702;22.862;2022-07-06T08:19:08;17.35;;;15.55;;
24833;SDS011;12914;43.702;22.862;2022-07-06T08:21:34;19.13;;;15.98;;
24833;SDS011;12914;43.702;22.862;2022-07-06T08:24:00;17.35;;;15.50;;
24833;SDS011;12914;43.702;22.862;2022-07-06T08:26:26;18.15;;;15.85;;
24833;SDS011;12914;43.702;22.862;2022-07-06T08:28:52;19.88;;;16.50;;
24833;SDS011;12914;43.702;22.862;2022-07-06T08:31:18;18.20;;;16.40;;
24833;SDS011;12914;43.702;22.862;2022-07-06T08:33:44;16.85;;;15.15;;
24833;SDS011;12914;43.702;22.862;2022-07-06T08:36:10;17.70;;;14.85;;
24833;SDS011;12914;43.702;22.862;2022-07-06T08:38:35;17.42;;;15.10;;
24833;SDS011;12914;43.702;22.862;2022-07-06T08:41:01;16.95;;;15.15;;
24833;SDS011;12914;43.702;22.862;2022-07-06T08:43:31;19.45;;;14.88;;
24833;SDS011;12914;43.702;22.862;2022-07-06T08:45:57;18.38;;;15.38;;
24833;SDS011;12914;43.702;22.862;2022-07-06T08:48:24;17.77;;;15.93;;
24833;SDS011;12914;43.702;22.862;2022-07-06T08:50:53;16.92;;;15.23;;
24833;SDS011;12914;43.702;22.862;2022-07-06T08:53:20;15.65;;;14.10;;
24833;SDS011;12914;43.702;22.862;2022-07-06T08:55:46;12.80;;;11.60;;
24833;SDS011;12914;43.702;22.862;2022-07-06T08:58:13;13.38;;;12.02;;
24833;SDS011;12914;43.702;22.862;2022-07-06T09:00:39;13.43;;;12.00;;
24833;SDS011;12914;43.702;22.862;2022-07-06T09:03:06;14.45;;;12.95;;
24833;SDS011;12914;43.702;22.862;2022-07-06T09:05:33;13.27;;;11.98;;
24833;SDS011;12914;43.702;22.862;2022-07-06T09:08:00;11.43;;;10.43;;
24833;SDS011;12914;43.702;22.862;2022-07-06T09:10:27;12.68;;;11.45;;
24833;SDS011;12914;43.702;22.862;2022-07-06T09:12:53;12.65;;;11.45;;
24833;SDS011;12914;43.702;22.862;2022-07-06T09:15:28;13.02;;;11.82;;
24833;SDS011;12914;43.702;22.862;2022-07-06T09:17:55;12.88;;;11.57;;
24833;SDS011;12914;43.702;22.862;2022-07-06T09:20:21;15.77;;;11.75;;
24833;SDS011;12914;43.702;22.862;2022-07-06T09:22:47;13.02;;;11.82;;
24833;SDS011;12914;43.702;22.862;2022-07-06T09:25:13;12.57;;;11.43;;
24833;SDS011;12914;43.702;22.862;2022-07-06T09:27:41;12.50;;;11.40;;
24833;SDS011;12914;43.702;22.862;2022-07-06T09:30:16;12.55;;;11.43;;
24833;SDS011;12914;43.702;22.862;2022-07-06T09:32:49;16.42;;;13.60;;
24833;SDS011;12914;43.702;22.862;2022-07-06T09:35:23;14.73;;;13.32;;
24833;SDS011;12914;43.702;22.862;2022-07-06T09:40:35;13.50;;;12.27;;
24833;SDS011;12914;43.702;22.862;2022-07-06T09:43:14;13.43;;;12.10;;
24833;SDS011;12914;43.702;22.862;2022-07-06T09:45:42;13.07;;;11.38;;
24833;SDS011;12914;43.702;22.862;2022-07-06T09:48:13;11.45;;;10.38;;
24833;SDS011;12914;43.702;22.862;2022-07-06T09:50:44;12.50;;;11.25;;
24833;SDS011;12914;43.702;22.862;2022-07-06T09:53:11;11.95;;;10.88;;
24833;SDS011;12914;43.702;22.862;2022-07-06T09:55:38;11.60;;;10.60;;
24833;SDS011;12914;43.702;22.862;2022-07-06T09:58:07;12.10;;;11.10;;
24833;SDS011;12914;43.702;22.862;2022-07-06T10:00:33;11.40;;;10.50;;
24833;SDS011;12914;43.702;22.862;2022-07-06T10:03:00;12.32;;;11.00;;
24833;SDS011;12914;43.702;22.862;2022-07-06T10:05:26;10.40;;;9.50;;
24833;SDS011;12914;43.702;22.862;2022-07-06T10:07:58;11.48;;;10.57;;
24833;SDS011;12914;43.702;22.862;2022-07-06T10:10:25;10.70;;;9.80;;
24833;SDS011;12914;43.702;22.862;2022-07-06T10:12:54;12.95;;;10.80;;
24833;SDS011;12914;43.702;22.862;2022-07-06T10:15:27;12.07;;;10.95;;
24833;SDS011;12914;43.702;22.862;2022-07-06T10:17:57;12.23;;;11.13;;
24833;SDS011;12914;43.702;22.862;2022-07-06T10:20:23;11.60;;;10.63;;
24833;SDS011;12914;43.702;22.862;2022-07-06T10:22:53;10.95;;;10.05;;
24833;SDS011;12914;43.702;22.862;2022-07-06T10:25:19;11.15;;;10.25;;
24833;SDS011;12914;43.702;22.862;2022-07-06T10:27:47;11.85;;;10.95;;
24833;SDS011;12914;43.702;22.862;2022-07-06T10:30:13;10.85;;;10.02;;
24833;SDS011;12914;43.702;22.862;2022-07-06T10:32:41;12.27;;;11.15;;
24833;SDS011;12914;43.702;22.862;2022-07-06T10:35:08;11.23;;;10.32;;
24833;SDS011;12914;43.702;22.862;2022-07-06T10:37:34;10.85;;;9.85;;
24833;SDS011;12914;43.702;22.862;2022-07-06T10:40:00;10.45;;;9.65;;
24833;SDS011;12914;43.702;22.862;2022-07-06T10:42:45;10.35;;;9.55;;
24833;SDS011;12914;43.702;22.862;2022-07-06T10:53:11;10.52;;;9.73;;
24833;SDS011;12914;43.702;22.862;2022-07-06T10:55:44;11.65;;;10.60;;
24833;SDS011;12914;43.702;22.862;2022-07-06T10:58:12;11.38;;;10.48;;
24833;SDS011;12914;43.702;22.862;2022-07-06T11:06:07;10.73;;;9.85;;
24833;SDS011;12914;43.702;22.862;2022-07-06T11:08:56;9.15;;;8.43;;
24833;SDS011;12914;43.702;22.862;2022-07-06T11:13:50;10.05;;;9.05;;
24833;SDS011;12914;43.702;22.862;2022-07-06T11:16:31;8.75;;;8.05;;
24833;SDS011;12914;43.702;22.862;2022-07-06T11:19:03;9.18;;;8.48;;
24833;SDS011;12914;43.702;22.862;2022-07-06T11:21:34;8.40;;;7.00;;
24833;SDS011;12914;43.702;22.862;2022-07-06T11:26:25;8.20;;;7.60;;
24833;SDS011;12914;43.702;22.862;2022-07-06T11:28:52;9.10;;;8.40;;
24833;SDS011;12914;43.702;22.862;2022-07-06T11:31:18;8.20;;;7.60;;
24833;SDS011;12914;43.702;22.862;2022-07-06T11:33:47;8.93;;;8.25;;
24833;SDS011;12914;43.702;22.862;2022-07-06T11:36:22;8.02;;;7.40;;
24833;SDS011;12914;43.702;22.862;2022-07-06T11:38:48;8.20;;;7.65;;
24833;SDS011;12914;43.702;22.862;2022-07-06T11:41:15;8.57;;;7.97;;
24833;SDS011;12914;43.702;22.862;2022-07-06T11:43:42;7.28;;;6.78;;
24833;SDS011;12914;43.702;22.862;2022-07-06T11:46:23;7.35;;;6.50;;
24833;SDS011;12914;43.702;22.862;2022-07-06T11:48:51;6.38;;;5.88;;
24833;SDS011;12914;43.702;22.862;2022-07-06T11:51:22;6.93;;;6.43;;
24833;SDS011;12914;43.702;22.862;2022-07-06T11:53:50;6.68;;;6.18;;
24833;SDS011;12914;43.702;22.862;2022-07-06T11:56:17;7.22;;;6.63;;
24833;SDS011;12914;43.702;22.862;2022-07-06T11:58:53;7.00;;;6.40;;
24833;SDS011;12914;43.702;22.862;2022-07-06T12:01:21;6.95;;;6.30;;
24833;SDS011;12914;43.702;22.862;2022-07-06T12:03:48;6.35;;;5.95;;
24833;SDS011;12914;43.702;22.862;2022-07-06T12:06:15;7.63;;;6.93;;
24833;SDS011;12914;43.702;22.862;2022-07-06T12:08:46;7.82;;;7.22;;
24833;SDS011;12914;43.702;22.862;2022-07-06T12:11:23;6.30;;;5.90;;
24833;SDS011;12914;43.702;22.862;2022-07-06T12:13:54;6.90;;;6.40;;
24833;SDS011;12914;43.702;22.862;2022-07-06T12:16:28;6.72;;;6.13;;
24833;SDS011;12914;43.702;22.862;2022-07-06T12:19:00;6.50;;;5.90;;
24833;SDS011;12914;43.702;22.862;2022-07-06T12:21:27;6.68;;;6.18;;
24833;SDS011;12914;43.702;22.862;2022-07-06T12:23:53;6.35;;;5.93;;
24833;SDS011;12914;43.702;22.862;2022-07-06T12:26:23;6.78;;;6.18;;
24833;SDS011;12914;43.702;22.862;2022-07-06T12:34:15;6.50;;;6.00;;
24833;SDS011;12914;43.702;22.862;2022-07-06T12:36:46;6.13;;;5.63;;
24833;SDS011;12914;43.702;22.862;2022-07-06T12:39:13;5.75;;;5.35;;
24833;SDS011;12914;43.702;22.862;2022-07-06T12:41:51;5.78;;;5.38;;
24833;SDS011;12914;43.702;22.862;2022-07-06T12:44:20;5.80;;;5.35;;
24833;SDS011;12914;43.702;22.862;2022-07-06T12:46:48;6.38;;;5.95;;
24833;SDS011;12914;43.702;22.862;2022-07-06T12:49:18;6.25;;;5.78;;
24833;SDS011;12914;43.702;22.862;2022-07-06T12:57:21;6.18;;;5.68;;
24833;SDS011;12914;43.702;22.862;2022-07-06T13:07:25;6.10;;;5.60;;
24833;SDS011;12914;43.702;22.862;2022-07-06T13:09:52;6.97;;;6.38;;
24833;SDS011;12914;43.702;22.862;2022-07-06T13:12:19;6.63;;;6.22;;
24833;SDS011;12914;43.702;22.862;2022-07-06T13:14:45;6.10;;;5.53;;
24833;SDS011;12914;43.702;22.862;2022-07-06T13:17:11;6.22;;;5.72;;
24833;SDS011;12914;43.702;22.862;2022-07-06T13:19:37;6.75;;;6.25;;
24833;SDS011;12914;43.702;22.862;2022-07-06T13:22:03;6.30;;;5.80;;
24833;SDS011;12914;43.702;22.862;2022-07-06T13:24:28;5.82;;;5.32;;
24833;SDS011;12914;43.702;22.862;2022-07-06T13:26:55;5.78;;;5.38;;
24833;SDS011;12914;43.702;22.862;2022-07-06T13:29:21;4.90;;;4.53;;
24833;SDS011;12914;43.702;22.862;2022-07-06T13:31:47;4.90;;;4.57;;
24833;SDS011;12914;43.702;22.862;2022-07-06T13:34:13;4.97;;;4.60;;
24833;SDS011;12914;43.702;22.862;2022-07-06T13:36:38;4.70;;;4.40;;
24833;SDS011;12914;43.702;22.862;2022-07-06T13:39:05;5.13;;;4.43;;
24833;SDS011;12914;43.702;22.862;2022-07-06T13:41:31;5.13;;;4.63;;
24833;SDS011;12914;43.702;22.862;2022-07-06T13:43:57;4.82;;;4.53;;
24833;SDS011;12914;43.702;22.862;2022-07-06T13:46:25;5.45;;;5.13;;
24833;SDS011;12914;43.702;22.862;2022-07-06T13:48:51;4.60;;;4.30;;
24833;SDS011;12914;43.702;22.862;2022-07-06T13:51:17;5.07;;;4.68;;
24833;SDS011;12914;43.702;22.862;2022-07-06T13:53:43;6.53;;;5.10;;
24833;SDS011;12914;43.702;22.862;2022-07-06T13:56:08;6.65;;;4.63;;
24833;SDS011;12914;43.702;22.862;2022-07-06T13:58:34;5.15;;;4.85;;
24833;SDS011;12914;43.702;22.862;2022-07-06T14:01:00;5.07;;;4.57;;
24833;SDS011;12914;43.702;22.862;2022-07-06T14:03:26;4.43;;;4.07;;
24833;SDS011;12914;43.702;22.862;2022-07-06T14:05:55;4.63;;;4.32;;
24833;SDS011;12914;43.702;22.862;2022-07-06T14:08:22;5.43;;;5.05;;
24833;SDS011;12914;43.702;22.862;2022-07-06T14:10:48;7.75;;;4.90;;
24833;SDS011;12914;43.702;22.862;2022-07-06T14:13:14;5.55;;;5.15;;
24833;SDS011;12914;43.702;22.862;2022-07-06T14:15:39;5.25;;;4.85;;
24833;SDS011;12914;43.702;22.862;2022-07-06T14:18:05;4.90;;;4.40;;
24833;SDS011;12914;43.702;22.862;2022-07-06T14:20:31;5.30;;;4.80;;
24833;SDS011;12914;43.702;22.862;2022-07-06T14:22:56;6.70;;;4.40;;
24833;SDS011;12914;43.702;22.862;2022-07-06T14:25:22;4.40;;;3.95;;
24833;SDS011;12914;43.702;22.862;2022-07-06T14:27:47;4.18;;;3.88;;
24833;SDS011;12914;43.702;22.862;2022-07-06T14:30:13;8.15;;;4.32;;
24833;SDS011;12914;43.702;22.862;2022-07-06T14:32:39;4.03;;;3.22;;
24833;SDS011;12914;43.702;22.862;2022-07-06T14:35:05;3.35;;;3.15;;
24833;SDS011;12914;43.702;22.862;2022-07-06T14:37:31;4.20;;;3.90;;
24833;SDS011;12914;43.702;22.862;2022-07-06T14:39:56;3.85;;;3.60;;
24833;SDS011;12914;43.702;22.862;2022-07-06T14:42:22;3.40;;;3.20;;
24833;SDS011;12914;43.702;22.862;2022-07-06T14:44:47;7.38;;;3.40;;
24833;SDS011;12914;43.702;22.862;2022-07-06T14:47:14;3.30;;;3.03;;
24833;SDS011;12914;43.702;22.862;2022-07-06T14:49:39;3.40;;;2.88;;
24833;SDS011;12914;43.702;22.862;2022-07-06T14:52:05;3.20;;;2.97;;
24833;SDS011;12914;43.702;22.862;2022-07-06T14:54:31;3.00;;;2.70;;
24833;SDS011;12914;43.702;22.862;2022-07-06T14:56:56;3.58;;;2.10;;